Jonesburg, Louisiana
Current Conditions -  °F | °C
As of 1:34 PM on Thursday 18 Dec 2014 (Local Time) from KMLU Reporting Station
Overcast Overcast  
Wind Chill: 52°   Ceiling: 4800
Heat Index: 52°   Visibility: 10mi
Dew Point: 46°   Wind: 5mph
Humidity: 80%   Direction: 110°ESE
Pressure: 30.15"   Gusts: NA
Location:  32.4475°N, 91.7992°W
Report Text: KMLU 181934Z 11004KT 10SM SCT024 OVC048 11/08 A3015 RMK AO2 T01110078
Loading
Personal Weather Stations






























Interactive Weather Map New forecast layout! Learn more

10-Day Weather Forecast

Advertisements
Track Severe Weather on mobile